sensor_id;sensor_type;location;lat;lon;timestamp;temperature;humidity
11664;DHT22;72375;59.302;18.204;2024-03-22T00:00:28;5.20;99.90
11664;DHT22;72375;59.302;18.204;2024-03-22T00:03:14;5.20;99.90
11664;DHT22;72375;59.302;18.204;2024-03-22T00:05:59;5.30;99.90
11664;DHT22;72375;59.302;18.204;2024-03-22T00:08:44;5.30;99.90
11664;DHT22;72375;59.302;18.204;2024-03-22T00:11:29;5.40;99.90
11664;DHT22;72375;59.302;18.204;2024-03-22T00:14:16;5.20;99.90
11664;DHT22;72375;59.302;18.204;2024-03-22T00:17:00;5.40;99.90
11664;DHT22;72375;59.302;18.204;2024-03-22T00:19:46;5.30;99.90
11664;DHT22;72375;59.302;18.204;2024-03-22T00:22:31;5.30;99.90
11664;DHT22;72375;59.302;18.204;2024-03-22T00:25:17;5.30;99.90
11664;DHT22;72375;59.302;18.204;2024-03-22T00:28:02;5.30;99.90
11664;DHT22;72375;59.302;18.204;2024-03-22T00:30:49;5.30;99.90
11664;DHT22;72375;59.302;18.204;2024-03-22T00:33:33;5.30;99.90
11664;DHT22;72375;59.302;18.204;2024-03-22T00:36:19;5.30;99.90
11664;DHT22;72375;59.302;18.204;2024-03-22T00:39:04;5.30;99.90
11664;DHT22;72375;59.302;18.204;2024-03-22T00:41:49;5.30;99.90
11664;DHT22;72375;59.302;18.204;2024-03-22T00:44:34;5.40;99.90
11664;DHT22;72375;59.302;18.204;2024-03-22T00:47:21;5.40;99.90
11664;DHT22;72375;59.302;18.204;2024-03-22T00:50:07;5.40;99.90
11664;DHT22;72375;59.302;18.204;2024-03-22T00:52:52;5.40;99.90
11664;DHT22;72375;59.302;18.204;2024-03-22T00:55:39;5.30;99.90
11664;DHT22;72375;59.302;18.204;2024-03-22T00:58:25;5.30;99.90
11664;DHT22;72375;59.302;18.204;2024-03-22T01:01:11;5.40;99.90
11664;DHT22;72375;59.302;18.204;2024-03-22T01:03:56;5.30;99.90
11664;DHT22;72375;59.302;18.204;2024-03-22T01:06:42;5.40;99.90
11664;DHT22;72375;59.302;18.204;2024-03-22T01:09:26;5.40;99.90
11664;DHT22;72375;59.302;18.204;2024-03-22T01:12:12;5.30;99.90
11664;DHT22;72375;59.302;18.204;2024-03-22T01:14:57;5.40;99.90
11664;DHT22;72375;59.302;18.204;2024-03-22T01:17:43;5.30;99.90
11664;DHT22;72375;59.302;18.204;2024-03-22T01:20:29;5.30;99.90
11664;DHT22;72375;59.302;18.204;2024-03-22T01:23:14;5.40;99.90
11664;DHT22;72375;59.302;18.204;2024-03-22T01:25:59;5.40;99.90
11664;DHT22;72375;59.302;18.204;2024-03-22T01:28:45;5.40;99.90
11664;DHT22;72375;59.302;18.204;2024-03-22T01:31:31;5.40;99.90
11664;DHT22;72375;59.302;18.204;2024-03-22T01:34:16;5.40;99.90
11664;DHT22;72375;59.302;18.204;2024-03-22T01:37:03;5.40;99.90
11664;DHT22;72375;59.302;18.204;2024-03-22T01:39:47;5.50;99.90
11664;DHT22;72375;59.302;18.204;2024-03-22T01:42:33;5.40;99.90
11664;DHT22;72375;59.302;18.204;2024-03-22T01:45:18;5.40;99.90
11664;DHT22;72375;59.302;18.204;2024-03-22T01:48:05;5.30;99.90
11664;DHT22;72375;59.302;18.204;2024-03-22T01:50:51;5.30;99.90
11664;DHT22;72375;59.302;18.204;2024-03-22T01:53:39;5.30;99.90
11664;DHT22;72375;59.302;18.204;2024-03-22T01:56:24;5.40;99.90
11664;DHT22;72375;59.302;18.204;2024-03-22T01:59:09;5.40;99.90
11664;DHT22;72375;59.302;18.204;2024-03-22T02:01:54;5.40;99.90
11664;DHT22;72375;59.302;18.204;2024-03-22T02:04:40;5.30;99.90
11664;DHT22;72375;59.302;18.204;2024-03-22T02:07:24;5.30;99.90
11664;DHT22;72375;59.302;18.204;2024-03-22T02:10:14;5.30;99.90
11664;DHT22;72375;59.302;18.204;2024-03-22T02:12:59;5.30;99.90
11664;DHT22;72375;59.302;18.204;2024-03-22T02:15:45;5.30;99.90
11664;DHT22;72375;59.302;18.204;2024-03-22T02:18:29;5.30;99.90
11664;DHT22;72375;59.302;18.204;2024-03-22T02:21:15;5.30;99.90
11664;DHT22;72375;59.302;18.204;2024-03-22T02:24:01;5.20;99.90
11664;DHT22;72375;59.302;18.204;2024-03-22T02:26:46;5.20;99.90
11664;DHT22;72375;59.302;18.204;2024-03-22T02:29:31;5.20;99.90
11664;DHT22;72375;59.302;18.204;2024-03-22T02:32:17;5.20;99.90
11664;DHT22;72375;59.302;18.204;2024-03-22T02:35:02;5.20;99.90
11664;DHT22;72375;59.302;18.204;2024-03-22T02:37:48;5.20;99.90
11664;DHT22;72375;59.302;18.204;2024-03-22T02:40:35;5.20;99.90
11664;DHT22;72375;59.302;18.204;2024-03-22T02:43:19;5.20;99.90
11664;DHT22;72375;59.302;18.204;2024-03-22T02:46:06;5.20;99.90
11664;DHT22;72375;59.302;18.204;2024-03-22T02:48:51;5.20;99.90
11664;DHT22;72375;59.302;18.204;2024-03-22T02:51:36;5.20;99.90
11664;DHT22;72375;59.302;18.204;2024-03-22T02:54:21;5.20;99.90
11664;DHT22;72375;59.302;18.204;2024-03-22T02:57:08;5.20;99.90
11664;DHT22;72375;59.302;18.204;2024-03-22T02:59:53;5.10;99.90
11664;DHT22;72375;59.302;18.204;2024-03-22T03:02:38;5.20;99.90
11664;DHT22;72375;59.302;18.204;2024-03-22T03:05:23;5.10;99.90
11664;DHT22;72375;59.302;18.204;2024-03-22T03:08:09;5.10;99.90
11664;DHT22;72375;59.302;18.204;2024-03-22T03:10:54;5.10;99.90
11664;DHT22;72375;59.302;18.204;2024-03-22T03:13:41;5.10;99.90
11664;DHT22;72375;59.302;18.204;2024-03-22T03:16:25;5.10;99.90
11664;DHT22;72375;59.302;18.204;2024-03-22T03:19:11;5.20;99.90
11664;DHT22;72375;59.302;18.204;2024-03-22T03:21:56;5.10;99.90
11664;DHT22;72375;59.302;18.204;2024-03-22T03:24:41;5.10;99.90
11664;DHT22;72375;59.302;18.204;2024-03-22T03:27:26;5.10;99.90
11664;DHT22;72375;59.302;18.204;2024-03-22T03:30:13;5.10;99.90
11664;DHT22;72375;59.302;18.204;2024-03-22T03:32:58;5.10;99.90
11664;DHT22;72375;59.302;18.204;2024-03-22T03:35:45;5.10;99.90
11664;DHT22;72375;59.302;18.204;2024-03-22T03:38:30;5.10;99.90
11664;DHT22;72375;59.302;18.204;2024-03-22T03:41:15;5.20;99.90
11664;DHT22;72375;59.302;18.204;2024-03-22T03:44:00;5.10;99.90
11664;DHT22;72375;59.302;18.204;2024-03-22T03:46:47;5.10;99.90
11664;DHT22;72375;59.302;18.204;2024-03-22T03:49:32;5.10;99.90
11664;DHT22;72375;59.302;18.204;2024-03-22T03:52:17;5.10;99.90
11664;DHT22;72375;59.302;18.204;2024-03-22T03:55:02;5.00;99.90
11664;DHT22;72375;59.302;18.204;2024-03-22T03:57:50;5.10;99.90
11664;DHT22;72375;59.302;18.204;2024-03-22T04:00:35;5.10;99.90
11664;DHT22;72375;59.302;18.204;2024-03-22T04:03:22;5.10;99.90
11664;DHT22;72375;59.302;18.204;2024-03-22T04:06:06;5.00;99.90
11664;DHT22;72375;59.302;18.204;2024-03-22T04:08:52;5.00;99.90
11664;DHT22;72375;59.302;18.204;2024-03-22T04:11:37;5.10;99.90
11664;DHT22;72375;59.302;18.204;2024-03-22T04:14:22;5.10;99.90
11664;DHT22;72375;59.302;18.204;2024-03-22T04:17:07;5.00;99.90
11664;DHT22;72375;59.302;18.204;2024-03-22T04:19:54;5.00;99.90
11664;DHT22;72375;59.302;18.204;2024-03-22T04:22:39;5.00;99.90
11664;DHT22;72375;59.302;18.204;2024-03-22T04:25:24;5.00;99.90
11664;DHT22;72375;59.302;18.204;2024-03-22T04:28:09;5.00;99.90
11664;DHT22;72375;59.302;18.204;2024-03-22T04:30:59;5.00;99.90
11664;DHT22;72375;59.302;18.204;2024-03-22T04:33:44;5.00;99.90
11664;DHT22;72375;59.302;18.204;2024-03-22T04:36:31;5.00;99.90
11664;DHT22;72375;59.302;18.204;2024-03-22T04:39:16;5.00;99.90
11664;DHT22;72375;59.302;18.204;2024-03-22T04:42:01;5.10;99.90
11664;DHT22;72375;59.302;18.204;2024-03-22T04:44:47;5.10;99.90
11664;DHT22;72375;59.302;18.204;2024-03-22T04:47:33;5.10;99.90
11664;DHT22;72375;59.302;18.204;2024-03-22T04:50:18;5.10;99.90
11664;DHT22;72375;59.302;18.204;2024-03-22T04:53:05;5.10;99.90
11664;DHT22;72375;59.302;18.204;2024-03-22T04:55:50;5.10;99.90
11664;DHT22;72375;59.302;18.204;2024-03-22T04:58:36;5.10;99.90
11664;DHT22;72375;59.302;18.204;2024-03-22T05:01:21;5.10;99.90
11664;DHT22;72375;59.302;18.204;2024-03-22T05:04:07;5.10;99.90
11664;DHT22;72375;59.302;18.204;2024-03-22T05:06:52;5.10;99.90
11664;DHT22;72375;59.302;18.204;2024-03-22T05:09:39;5.10;99.90
11664;DHT22;72375;59.302;18.204;2024-03-22T05:12:23;5.10;99.90
11664;DHT22;72375;59.302;18.204;2024-03-22T05:15:09;5.10;99.90
11664;DHT22;72375;59.302;18.204;2024-03-22T05:17:55;5.10;99.90
11664;DHT22;72375;59.302;18.204;2024-03-22T05:20:41;5.10;99.90
11664;DHT22;72375;59.302;18.204;2024-03-22T05:23:26;5.10;99.90
11664;DHT22;72375;59.302;18.204;2024-03-22T05:26:13;5.10;99.90
11664;DHT22;72375;59.302;18.204;2024-03-22T05:28:57;5.10;99.90
11664;DHT22;72375;59.302;18.204;2024-03-22T05:31:48;5.10;99.90
11664;DHT22;72375;59.302;18.204;2024-03-22T05:34:35;5.10;99.90
11664;DHT22;72375;59.302;18.204;2024-03-22T05:37:20;5.20;99.90
11664;DHT22;72375;59.302;18.204;2024-03-22T05:40:06;5.20;99.90
11664;DHT22;72375;59.302;18.204;2024-03-22T05:42:54;5.20;99.90
11664;DHT22;72375;59.302;18.204;2024-03-22T05:45:38;5.10;99.90
11664;DHT22;72375;59.302;18.204;2024-03-22T05:48:24;5.20;99.90
11664;DHT22;72375;59.302;18.204;2024-03-22T05:51:08;5.20;99.90
11664;DHT22;72375;59.302;18.204;2024-03-22T05:53:54;5.20;99.90
11664;DHT22;72375;59.302;18.204;2024-03-22T05:56:39;5.30;99.90
11664;DHT22;72375;59.302;18.204;2024-03-22T05:59:26;5.20;99.90
11664;DHT22;72375;59.302;18.204;2024-03-22T06:02:12;5.20;99.90
11664;DHT22;72375;59.302;18.204;2024-03-22T06:04:59;5.20;99.90
11664;DHT22;72375;59.302;18.204;2024-03-22T06:07:44;5.20;99.90
11664;DHT22;72375;59.302;18.204;2024-03-22T06:10:30;5.30;99.90
11664;DHT22;72375;59.302;18.204;2024-03-22T06:13:14;5.30;99.90
11664;DHT22;72375;59.302;18.204;2024-03-22T06:16:02;5.30;99.90
11664;DHT22;72375;59.302;18.204;2024-03-22T06:18:47;5.30;99.90
11664;DHT22;72375;59.302;18.204;2024-03-22T06:21:33;5.40;99.90
11664;DHT22;72375;59.302;18.204;2024-03-22T06:24:18;5.30;99.90
11664;DHT22;72375;59.302;18.204;2024-03-22T06:27:03;5.30;99.90
11664;DHT22;72375;59.302;18.204;2024-03-22T06:29:48;5.30;99.90
11664;DHT22;72375;59.302;18.204;2024-03-22T06:32:35;5.40;99.90
11664;DHT22;72375;59.302;18.204;2024-03-22T06:35:20;5.40;99.90
11664;DHT22;72375;59.302;18.204;2024-03-22T06:38:06;5.40;99.90
11664;DHT22;72375;59.302;18.204;2024-03-22T06:40:51;5.50;99.90
11664;DHT22;72375;59.302;18.204;2024-03-22T06:43:36;5.50;99.90
11664;DHT22;72375;59.302;18.204;2024-03-22T06:46:21;5.50;99.90
11664;DHT22;72375;59.302;18.204;2024-03-22T06:49:08;5.50;99.90
11664;DHT22;72375;59.302;18.204;2024-03-22T06:51:53;5.60;99.90
11664;DHT22;72375;59.302;18.204;2024-03-22T06:54:38;5.60;99.90
11664;DHT22;72375;59.302;18.204;2024-03-22T06:57:23;5.60;99.90
11664;DHT22;72375;59.302;18.204;2024-03-22T07:00:10;5.60;99.90
11664;DHT22;72375;59.302;18.204;2024-03-22T07:02:55;5.60;99.90
11664;DHT22;72375;59.302;18.204;2024-03-22T07:05:42;5.60;99.90
11664;DHT22;72375;59.302;18.204;2024-03-22T07:08:28;5.60;99.90
11664;DHT22;72375;59.302;18.204;2024-03-22T07:11:12;5.70;99.90
11664;DHT22;72375;59.302;18.204;2024-03-22T07:13:58;5.70;99.90
11664;DHT22;72375;59.302;18.204;2024-03-22T07:16:43;5.70;99.90
11664;DHT22;72375;59.302;18.204;2024-03-22T07:19:28;5.70;99.90
11664;DHT22;72375;59.302;18.204;2024-03-22T07:22:14;5.70;99.90
11664;DHT22;72375;59.302;18.204;2024-03-22T07:25:00;5.70;99.90
11664;DHT22;72375;59.302;18.204;2024-03-22T07:27:44;5.70;99.90
11664;DHT22;72375;59.302;18.204;2024-03-22T07:30:30;5.80;99.90
11664;DHT22;72375;59.302;18.204;2024-03-22T07:33:14;5.80;99.90
11664;DHT22;72375;59.302;18.204;2024-03-22T07:36:02;5.80;99.90
11664;DHT22;72375;59.302;18.204;2024-03-22T07:38:48;5.80;99.90
11664;DHT22;72375;59.302;18.204;2024-03-22T07:41:34;5.80;99.90
11664;DHT22;72375;59.302;18.204;2024-03-22T07:44:19;5.80;99.90
11664;DHT22;72375;59.302;18.204;2024-03-22T07:47:05;5.90;99.90
11664;DHT22;72375;59.302;18.204;2024-03-22T07:49:50;5.90;99.90
11664;DHT22;72375;59.302;18.204;2024-03-22T07:52:35;5.90;99.90
11664;DHT22;72375;59.302;18.204;2024-03-22T07:55:22;5.90;99.90
11664;DHT22;72375;59.302;18.204;2024-03-22T07:58:08;6.00;99.90
11664;DHT22;72375;59.302;18.204;2024-03-22T08:00:52;6.00;99.90
11664;DHT22;72375;59.302;18.204;2024-03-22T08:03:38;6.00;99.90
11664;DHT22;72375;59.302;18.204;2024-03-22T08:06:23;6.00;99.90
11664;DHT22;72375;59.302;18.204;2024-03-22T08:09:08;6.10;99.90
11664;DHT22;72375;59.302;18.204;2024-03-22T08:11:54;6.10;99.90
11664;DHT22;72375;59.302;18.204;2024-03-22T08:14:40;6.10;99.90
11664;DHT22;72375;59.302;18.204;2024-03-22T08:17:25;6.10;99.90
11664;DHT22;72375;59.302;18.204;2024-03-22T08:20:11;6.10;99.90
11664;DHT22;72375;59.302;18.204;2024-03-22T08:22:55;6.20;99.90
11664;DHT22;72375;59.302;18.204;2024-03-22T08:25:42;6.10;99.90
11664;DHT22;72375;59.302;18.204;2024-03-22T08:28:28;6.20;99.90
11664;DHT22;72375;59.302;18.204;2024-03-22T08:31:14;6.10;99.90
11664;DHT22;72375;59.302;18.204;2024-03-22T08:33:58;6.10;99.90
11664;DHT22;72375;59.302;18.204;2024-03-22T08:36:45;6.10;99.90
11664;DHT22;72375;59.302;18.204;2024-03-22T08:39:30;6.10;99.90
11664;DHT22;72375;59.302;18.204;2024-03-22T08:42:17;6.10;99.90
11664;DHT22;72375;59.302;18.204;2024-03-22T08:45:04;6.20;99.90
11664;DHT22;72375;59.302;18.204;2024-03-22T08:47:49;6.20;99.90
11664;DHT22;72375;59.302;18.204;2024-03-22T08:50:34;6.20;99.90
11664;DHT22;72375;59.302;18.204;2024-03-22T08:53:20;6.30;99.90
11664;DHT22;72375;59.302;18.204;2024-03-22T08:56:05;6.30;99.90
11664;DHT22;72375;59.302;18.204;2024-03-22T08:58:50;6.30;99.90
11664;DHT22;72375;59.302;18.204;2024-03-22T09:01:36;6.40;99.90
11664;DHT22;72375;59.302;18.204;2024-03-22T09:04:22;6.40;99.90
11664;DHT22;72375;59.302;18.204;2024-03-22T09:07:07;6.40;99.90
11664;DHT22;72375;59.302;18.204;2024-03-22T09:09:52;6.50;99.90
11664;DHT22;72375;59.302;18.204;2024-03-22T09:12:37;6.50;99.90
11664;DHT22;72375;59.302;18.204;2024-03-22T09:15:23;6.50;99.90
11664;DHT22;72375;59.302;18.204;2024-03-22T09:18:10;6.50;99.90
11664;DHT22;72375;59.302;18.204;2024-03-22T09:20:55;6.50;99.90
11664;DHT22;72375;59.302;18.204;2024-03-22T09:23:40;6.50;99.90
11664;DHT22;72375;59.302;18.204;2024-03-22T09:26:26;6.50;99.90
11664;DHT22;72375;59.302;18.204;2024-03-22T09:29:10;6.60;99.90
11664;DHT22;72375;59.302;18.204;2024-03-22T09:31:56;6.60;99.90
11664;DHT22;72375;59.302;18.204;2024-03-22T09:34:43;6.70;99.90
11664;DHT22;72375;59.302;18.204;2024-03-22T09:37:28;6.70;99.90
11664;DHT22;72375;59.302;18.204;2024-03-22T09:40:13;6.70;99.90
11664;DHT22;72375;59.302;18.204;2024-03-22T09:43:02;6.70;99.90
11664;DHT22;72375;59.302;18.204;2024-03-22T09:45:49;6.70;99.90
11664;DHT22;72375;59.302;18.204;2024-03-22T09:48:34;6.70;99.90
11664;DHT22;72375;59.302;18.204;2024-03-22T09:51:22;6.70;99.90
11664;DHT22;72375;59.302;18.204;2024-03-22T09:54:09;6.70;99.90
11664;DHT22;72375;59.302;18.204;2024-03-22T09:56:55;6.70;99.90
11664;DHT22;72375;59.302;18.204;2024-03-22T09:59:40;6.70;99.90
11664;DHT22;72375;59.302;18.204;2024-03-22T10:02:26;6.70;99.90
11664;DHT22;72375;59.302;18.204;2024-03-22T10:05:11;6.70;99.90
11664;DHT22;72375;59.302;18.204;2024-03-22T10:07:58;6.70;99.90
11664;DHT22;72375;59.302;18.204;2024-03-22T10:10:42;6.70;99.90
11664;DHT22;72375;59.302;18.204;2024-03-22T10:13:28;6.70;99.90
11664;DHT22;72375;59.302;18.204;2024-03-22T10:16:13;6.70;99.90
11664;DHT22;72375;59.302;18.204;2024-03-22T10:18:59;6.70;99.90
11664;DHT22;72375;59.302;18.204;2024-03-22T10:21:44;6.70;99.90
11664;DHT22;72375;59.302;18.204;2024-03-22T10:24:31;6.70;99.90
11664;DHT22;72375;59.302;18.204;2024-03-22T10:27:17;6.80;99.90
11664;DHT22;72375;59.302;18.204;2024-03-22T10:30:07;6.80;99.90
11664;DHT22;72375;59.302;18.204;2024-03-22T10:32:52;6.80;99.90
11664;DHT22;72375;59.302;18.204;2024-03-22T10:35:39;6.80;99.90
11664;DHT22;72375;59.302;18.204;2024-03-22T10:38:24;6.90;99.90
11664;DHT22;72375;59.302;18.204;2024-03-22T10:41:12;6.90;99.90
11664;DHT22;72375;59.302;18.204;2024-03-22T10:43:57;6.90;99.90
11664;DHT22;72375;59.302;18.204;2024-03-22T10:46:45;7.00;99.90
11664;DHT22;72375;59.302;18.204;2024-03-22T10:49:30;7.10;99.90
11664;DHT22;72375;59.302;18.204;2024-03-22T10:52:21;7.10;99.90
11664;DHT22;72375;59.302;18.204;2024-03-22T10:55:08;7.10;99.90
11664;DHT22;72375;59.302;18.204;2024-03-22T10:57:57;7.10;99.90
11664;DHT22;72375;59.302;18.204;2024-03-22T11:00:42;7.10;99.90
11664;DHT22;72375;59.302;18.204;2024-03-22T11:03:29;7.10;99.90
11664;DHT22;72375;59.302;18.204;2024-03-22T11:06:18;7.10;99.90
11664;DHT22;72375;59.302;18.204;2024-03-22T11:09:04;7.10;99.90
11664;DHT22;72375;59.302;18.204;2024-03-22T11:11:51;7.10;99.90
11664;DHT22;72375;59.302;18.204;2024-03-22T11:14:39;7.10;99.90
11664;DHT22;72375;59.302;18.204;2024-03-22T11:17:23;7.10;99.90
11664;DHT22;72375;59.302;18.204;2024-03-22T11:20:09;7.10;99.90
11664;DHT22;72375;59.302;18.204;2024-03-22T11:22:56;7.10;99.90
11664;DHT22;72375;59.302;18.204;2024-03-22T11:25:41;7.20;99.90
11664;DHT22;72375;59.302;18.204;2024-03-22T11:28:26;7.20;99.90
11664;DHT22;72375;59.302;18.204;2024-03-22T11:31:13;7.20;99.90
11664;DHT22;72375;59.302;18.204;2024-03-22T11:33:58;7.20;99.90
11664;DHT22;72375;59.302;18.204;2024-03-22T11:36:44;7.30;99.90
11664;DHT22;72375;59.302;18.204;2024-03-22T11:39:30;7.40;99.90
11664;DHT22;72375;59.302;18.204;2024-03-22T11:42:15;7.40;99.90
11664;DHT22;72375;59.302;18.204;2024-03-22T11:45:01;7.40;99.90
11664;DHT22;72375;59.302;18.204;2024-03-22T11:47:48;7.50;99.90
11664;DHT22;72375;59.302;18.204;2024-03-22T11:50:33;7.50;99.90
11664;DHT22;72375;59.302;18.204;2024-03-22T11:53:18;7.50;99.90
11664;DHT22;72375;59.302;18.204;2024-03-22T11:56:04;7.50;99.90
11664;DHT22;72375;59.302;18.204;2024-03-22T11:58:49;7.60;99.90
11664;DHT22;72375;59.302;18.204;2024-03-22T12:01:42;7.60;99.90
11664;DHT22;72375;59.302;18.204;2024-03-22T12:04:28;7.60;99.90
11664;DHT22;72375;59.302;18.204;2024-03-22T12:07:15;7.60;99.90
11664;DHT22;72375;59.302;18.204;2024-03-22T12:09:59;7.60;99.90
11664;DHT22;72375;59.302;18.204;2024-03-22T12:12:45;7.60;99.90
11664;DHT22;72375;59.302;18.204;2024-03-22T12:15:29;7.60;99.90
11664;DHT22;72375;59.302;18.204;2024-03-22T12:18:15;7.70;99.90
11664;DHT22;72375;59.302;18.204;2024-03-22T12:21:02;7.70;99.90
11664;DHT22;72375;59.302;18.204;2024-03-22T12:23:48;7.70;99.90
11664;DHT22;72375;59.302;18.204;2024-03-22T12:26:33;7.70;99.90
11664;DHT22;72375;59.302;18.204;2024-03-22T12:29:19;7.70;99.90
11664;DHT22;72375;59.302;18.204;2024-03-22T12:32:03;7.70;99.90
11664;DHT22;72375;59.302;18.204;2024-03-22T12:34:49;7.80;99.90
11664;DHT22;72375;59.302;18.204;2024-03-22T12:37:35;7.80;99.90
11664;DHT22;72375;59.302;18.204;2024-03-22T12:40:21;7.80;99.90
11664;DHT22;72375;59.302;18.204;2024-03-22T12:43:09;7.90;99.90
11664;DHT22;72375;59.302;18.204;2024-03-22T12:45:54;7.90;99.90
11664;DHT22;72375;59.302;18.204;2024-03-22T12:48:43;7.90;99.90
11664;DHT22;72375;59.302;18.204;2024-03-22T12:51:27;7.90;99.90
11664;DHT22;72375;59.302;18.204;2024-03-22T12:54:15;7.90;99.90
11664;DHT22;72375;59.302;18.204;2024-03-22T12:57:03;8.00;99.90
11664;DHT22;72375;59.302;18.204;2024-03-22T12:59:48;8.00;99.90
11664;DHT22;72375;59.302;18.204;2024-03-22T13:02:33;8.00;99.90
11664;DHT22;72375;59.302;18.204;2024-03-22T13:05:19;8.10;99.90
11664;DHT22;72375;59.302;18.204;2024-03-22T13:08:03;8.10;99.90
11664;DHT22;72375;59.302;18.204;2024-03-22T13:10:51;8.20;99.90
11664;DHT22;72375;59.302;18.204;2024-03-22T13:13:36;8.20;99.90
11664;DHT22;72375;59.302;18.204;2024-03-22T13:16:22;8.30;99.90
11664;DHT22;72375;59.302;18.204;2024-03-22T13:19:07;8.30;99.90
11664;DHT22;72375;59.302;18.204;2024-03-22T13:21:56;8.30;99.90
11664;DHT22;72375;59.302;18.204;2024-03-22T13:24:42;8.40;99.90
11664;DHT22;72375;59.302;18.204;2024-03-22T13:27:29;8.40;99.90
11664;DHT22;72375;59.302;18.204;2024-03-22T13:30:14;8.40;99.90
11664;DHT22;72375;59.302;18.204;2024-03-22T13:33:00;8.40;99.90
11664;DHT22;72375;59.302;18.204;2024-03-22T13:35:45;8.40;99.90
11664;DHT22;72375;59.302;18.204;2024-03-22T13:38:31;8.40;99.90
11664;DHT22;72375;59.302;18.204;2024-03-22T13:41:15;8.40;99.90
11664;DHT22;72375;59.302;18.204;2024-03-22T13:44:02;8.50;99.90
11664;DHT22;72375;59.302;18.204;2024-03-22T13:46:49;8.40;99.90
11664;DHT22;72375;59.302;18.204;2024-03-22T13:49:34;8.50;99.90
11664;DHT22;72375;59.302;18.204;2024-03-22T13:52:20;8.50;99.90
11664;DHT22;72375;59.302;18.204;2024-03-22T13:55:07;8.50;99.90
11664;DHT22;72375;59.302;18.204;2024-03-22T13:57:52;8.60;99.90
11664;DHT22;72375;59.302;18.204;2024-03-22T14:00:39;8.60;99.90
11664;DHT22;72375;59.302;18.204;2024-03-22T14:03:24;8.70;99.90
11664;DHT22;72375;59.302;18.204;2024-03-22T14:06:10;8.80;99.90
11664;DHT22;72375;59.302;18.204;2024-03-22T14:08:54;8.90;99.90
11664;DHT22;72375;59.302;18.204;2024-03-22T14:11:45;8.90;99.90
11664;DHT22;72375;59.302;18.204;2024-03-22T14:14:31;9.00;99.90
11664;DHT22;72375;59.302;18.204;2024-03-22T14:17:18;9.10;99.90
11664;DHT22;72375;59.302;18.204;2024-03-22T14:20:03;9.20;99.90
11664;DHT22;72375;59.302;18.204;2024-03-22T14:22:56;9.20;99.90
11664;DHT22;72375;59.302;18.204;2024-03-22T14:25:40;9.30;99.90
11664;DHT22;72375;59.302;18.204;2024-03-22T14:28:29;9.30;99.90
11664;DHT22;72375;59.302;18.204;2024-03-22T14:31:13;9.30;99.90
11664;DHT22;72375;59.302;18.204;2024-03-22T14:34:00;9.30;99.90
11664;DHT22;72375;59.302;18.204;2024-03-22T14:36:45;9.30;99.90
11664;DHT22;72375;59.302;18.204;2024-03-22T14:39:30;9.30;99.90
11664;DHT22;72375;59.302;18.204;2024-03-22T14:42:16;9.40;99.90
11664;DHT22;72375;59.302;18.204;2024-03-22T14:45:02;9.40;99.90
11664;DHT22;72375;59.302;18.204;2024-03-22T14:47:47;9.40;99.90
11664;DHT22;72375;59.302;18.204;2024-03-22T14:50:36;9.40;99.90
11664;DHT22;72375;59.302;18.204;2024-03-22T14:53:22;9.40;99.90
11664;DHT22;72375;59.302;18.204;2024-03-22T14:56:08;9.50;99.90
11664;DHT22;72375;59.302;18.204;2024-03-22T14:58:52;9.50;99.90
11664;DHT22;72375;59.302;18.204;2024-03-22T15:01:38;9.50;99.90
11664;DHT22;72375;59.302;18.204;2024-03-22T15:04:23;9.60;99.90
11664;DHT22;72375;59.302;18.204;2024-03-22T15:07:10;9.60;99.90
11664;DHT22;72375;59.302;18.204;2024-03-22T15:09:55;9.70;99.90
11664;DHT22;72375;59.302;18.204;2024-03-22T15:12:40;9.80;99.90
11664;DHT22;72375;59.302;18.204;2024-03-22T15:15:26;9.80;99.90
11664;DHT22;72375;59.302;18.204;2024-03-22T15:18:10;9.80;99.90
11664;DHT22;72375;59.302;18.204;2024-03-22T15:20:56;9.80;99.90
11664;DHT22;72375;59.302;18.204;2024-03-22T15:23:42;9.80;99.90
11664;DHT22;72375;59.302;18.204;2024-03-22T15:26:28;10.00;99.90
11664;DHT22;72375;59.302;18.204;2024-03-22T15:29:13;10.00;99.90
11664;DHT22;72375;59.302;18.204;2024-03-22T15:31:59;9.90;99.90
11664;DHT22;72375;59.302;18.204;2024-03-22T15:34:44;9.80;99.90
11664;DHT22;72375;59.302;18.204;2024-03-22T15:37:30;9.70;99.90
11664;DHT22;72375;59.302;18.204;2024-03-22T15:40:16;9.70;99.90
11664;DHT22;72375;59.302;18.204;2024-03-22T15:43:04;9.70;99.90
11664;DHT22;72375;59.302;18.204;2024-03-22T15:45:52;9.80;99.90
11664;DHT22;72375;59.302;18.204;2024-03-22T15:48:38;10.30;99.90
11664;DHT22;72375;59.302;18.204;2024-03-22T15:51:22;10.60;99.90
11664;DHT22;72375;59.302;18.204;2024-03-22T15:54:08;10.90;99.90
11664;DHT22;72375;59.302;18.204;2024-03-22T15:56:54;10.80;99.90
11664;DHT22;72375;59.302;18.204;2024-03-22T15:59:39;10.80;99.90
11664;DHT22;72375;59.302;18.204;2024-03-22T16:02:24;10.70;99.90
11664;DHT22;72375;59.302;18.204;2024-03-22T16:05:09;11.20;99.90
11664;DHT22;72375;59.302;18.204;2024-03-22T16:07:54;11.70;99.90
11664;DHT22;72375;59.302;18.204;2024-03-22T16:10:40;11.60;99.90
11664;DHT22;72375;59.302;18.204;2024-03-22T16:13:26;11.30;99.90
11664;DHT22;72375;59.302;18.204;2024-03-22T16:16:12;11.00;99.90
11664;DHT22;72375;59.302;18.204;2024-03-22T16:18:56;10.80;99.90
11664;DHT22;72375;59.302;18.204;2024-03-22T16:21:42;10.60;99.90
11664;DHT22;72375;59.302;18.204;2024-03-22T16:24:27;10.40;99.90
11664;DHT22;72375;59.302;18.204;2024-03-22T16:27:12;10.20;99.90
11664;DHT22;72375;59.302;18.204;2024-03-22T16:29:58;10.10;99.90
11664;DHT22;72375;59.302;18.204;2024-03-22T16:32:44;9.90;99.90
11664;DHT22;72375;59.302;18.204;2024-03-22T16:35:29;9.80;99.90
11664;DHT22;72375;59.302;18.204;2024-03-22T16:38:14;9.70;99.90
11664;DHT22;72375;59.302;18.204;2024-03-22T16:40:58;9.60;99.90
11664;DHT22;72375;59.302;18.204;2024-03-22T16:43:44;9.50;99.90
11664;DHT22;72375;59.302;18.204;2024-03-22T16:46:30;9.50;99.90
11664;DHT22;72375;59.302;18.204;2024-03-22T16:49:16;9.40;99.90
11664;DHT22;72375;59.302;18.204;2024-03-22T16:52:00;9.30;99.90
11664;DHT22;72375;59.302;18.204;2024-03-22T16:54:46;9.30;99.90
11664;DHT22;72375;59.302;18.204;2024-03-22T16:57:31;9.30;99.90
11664;DHT22;72375;59.302;18.204;2024-03-22T17:00:17;9.30;99.90
11664;DHT22;72375;59.302;18.204;2024-03-22T17:03:04;9.20;99.90
11664;DHT22;72375;59.302;18.204;2024-03-22T17:05:48;9.20;99.90
11664;DHT22;72375;59.302;18.204;2024-03-22T17:08:35;9.10;99.90
11664;DHT22;72375;59.302;18.204;2024-03-22T17:11:21;9.00;99.90
11664;DHT22;72375;59.302;18.204;2024-03-22T17:14:06;9.00;99.90
11664;DHT22;72375;59.302;18.204;2024-03-22T17:16:51;9.00;99.90
11664;DHT22;72375;59.302;18.204;2024-03-22T17:19:37;9.00;99.90
11664;DHT22;72375;59.302;18.204;2024-03-22T17:22:23;9.00;99.90
11664;DHT22;72375;59.302;18.204;2024-03-22T17:25:08;8.90;99.90